sensor_id;sensor_type;location;lat;lon;timestamp;pressure;altitude;pressure_sealevel;temperature;humidity
28354;BME280;15603;50.878;8.036;2023-04-08T00:01:01;144609.72;;;5.69;100.00
28354;BME280;15603;50.878;8.036;2023-04-08T00:03:28;144663.03;;;5.92;100.00
28354;BME280;15603;50.878;8.036;2023-04-08T00:05:55;144650.91;;;5.87;100.00
28354;BME280;15603;50.878;8.036;2023-04-08T00:08:22;144614.56;;;5.71;100.00
28354;BME280;15603;50.878;8.036;2023-04-08T00:10:49;144684.88;;;6.01;100.00
28354;BME280;15603;50.878;8.036;2023-04-08T00:13:16;144625.47;;;5.76;100.00
28354;BME280;15603;50.878;8.036;2023-04-08T00:15:44;144640.00;;;5.82;100.00
28354;BME280;15603;50.878;8.036;2023-04-08T00:18:13;144597.63;;;5.64;100.00
28354;BME280;15603;50.878;8.036;2023-04-08T00:20:41;144652.13;;;5.87;100.00
28354;BME280;15603;50.878;8.036;2023-04-08T00:23:08;144663.03;;;5.92;100.00
28354;BME280;15603;50.878;8.036;2023-04-08T00:25:36;144638.81;;;5.82;100.00
28354;BME280;15603;50.878;8.036;2023-04-08T00:28:03;144621.84;;;5.75;100.00
28354;BME280;15603;50.878;8.036;2023-04-08T00:30:30;144641.22;;;5.83;100.00
28354;BME280;15603;50.878;8.036;2023-04-08T00:32:58;144647.28;;;5.85;100.00
28354;BME280;15603;50.878;8.036;2023-04-08T00:35:25;144633.97;;;5.80;100.00
28354;BME280;15603;50.878;8.036;2023-04-08T00:37:52;144612.16;;;5.70;100.00
28354;BME280;15603;50.878;8.036;2023-04-08T00:40:19;144603.66;;;5.67;100.00
28354;BME280;15603;50.878;8.036;2023-04-08T00:42:46;144549.19;;;5.44;100.00
28354;BME280;15603;50.878;8.036;2023-04-08T00:45:14;144631.53;;;5.79;100.00
28354;BME280;15603;50.878;8.036;2023-04-08T00:47:41;144630.31;;;5.78;100.00
28354;BME280;15603;50.878;8.036;2023-04-08T00:50:08;144598.84;;;5.65;100.00
28354;BME280;15603;50.878;8.036;2023-04-08T00:52:36;144600.03;;;5.65;100.00
28354;BME280;15603;50.878;8.036;2023-04-08T00:55:04;144610.97;;;5.70;100.00
28354;BME280;15603;50.878;8.036;2023-04-08T00:57:32;144646.06;;;5.85;100.00
28354;BME280;15603;50.878;8.036;2023-04-08T01:00:00;144592.78;;;5.62;100.00
28354;BME280;15603;50.878;8.036;2023-04-08T01:03:00;144604.88;;;5.67;100.00
28354;BME280;15603;50.878;8.036;2023-04-08T01:05:35;144528.63;;;5.35;100.00
28354;BME280;15603;50.878;8.036;2023-04-08T01:08:07;144578.22;;;5.56;100.00
28354;BME280;15603;50.878;8.036;2023-04-08T01:10:36;144566.13;;;5.51;100.00
28354;BME280;15603;50.878;8.036;2023-04-08T01:13:07;144549.19;;;5.44;100.00
28354;BME280;15603;50.878;8.036;2023-04-08T01:15:37;144503.16;;;5.24;100.00
28354;BME280;15603;50.878;8.036;2023-04-08T01:18:09;144529.81;;;5.36;100.00
28354;BME280;15603;50.878;8.036;2023-04-08T01:20:39;144529.81;;;5.36;100.00
28354;BME280;15603;50.878;8.036;2023-04-08T01:26:19;144498.31;;;5.22;100.00
28354;BME280;15603;50.878;8.036;2023-04-08T01:28:49;144543.13;;;5.41;100.00
28354;BME280;15603;50.878;8.036;2023-04-08T01:31:18;144538.28;;;5.39;100.00
28354;BME280;15603;50.878;8.036;2023-04-08T01:33:46;144534.66;;;5.38;100.00
28354;BME280;15603;50.878;8.036;2023-04-08T01:36:15;144500.72;;;5.23;100.00
28354;BME280;15603;50.878;8.036;2023-04-08T01:38:43;144506.81;;;5.26;100.00
28354;BME280;15603;50.878;8.036;2023-04-08T01:41:16;144342.19;;;4.56;100.00
28354;BME280;15603;50.878;8.036;2023-04-08T01:43:45;144435.38;;;4.96;100.00
28354;BME280;15603;50.878;8.036;2023-04-08T01:46:12;144441.41;;;4.98;100.00
28354;BME280;15603;50.878;8.036;2023-04-08T01:48:41;144446.25;;;5.00;100.00
28354;BME280;15603;50.878;8.036;2023-04-08T01:51:10;144455.97;;;5.04;100.00
28354;BME280;15603;50.878;8.036;2023-04-08T01:53:38;144428.09;;;4.92;100.00
28354;BME280;15603;50.878;8.036;2023-04-08T01:56:09;144452.34;;;5.03;100.00
28354;BME280;15603;50.878;8.036;2023-04-08T01:58:49;144446.25;;;5.00;100.00
28354;BME280;15603;50.878;8.036;2023-04-08T02:01:20;144408.72;;;4.84;100.00
28354;BME280;15603;50.878;8.036;2023-04-08T02:03:49;144408.72;;;4.84;100.00
28354;BME280;15603;50.878;8.036;2023-04-08T02:06:18;144408.72;;;4.84;100.00
28354;BME280;15603;50.878;8.036;2023-04-08T02:08:45;144425.69;;;4.91;100.00
28354;BME280;15603;50.878;8.036;2023-04-08T02:11:12;144420.84;;;4.89;100.00
28354;BME280;15603;50.878;8.036;2023-04-08T02:13:39;144370.03;;;4.68;100.00
28354;BME280;15603;50.878;8.036;2023-04-08T02:16:32;144439.00;;;4.97;100.00
28354;BME280;15603;50.878;8.036;2023-04-08T02:19:10;144385.75;;;4.75;100.00
28354;BME280;15603;50.878;8.036;2023-04-08T02:21:43;144407.53;;;4.84;100.00
28354;BME280;15603;50.878;8.036;2023-04-08T02:24:13;144417.22;;;4.88;100.00
28354;BME280;15603;50.878;8.036;2023-04-08T02:26:43;144378.50;;;4.71;100.00
28354;BME280;15603;50.878;8.036;2023-04-08T02:29:12;144388.19;;;4.76;100.00
28354;BME280;15603;50.878;8.036;2023-04-08T02:31:42;144357.91;;;4.63;100.00
28354;BME280;15603;50.878;8.036;2023-04-08T02:34:10;144372.44;;;4.69;100.00
28354;BME280;15603;50.878;8.036;2023-04-08T02:36:38;144389.38;;;4.76;100.00
28354;BME280;15603;50.878;8.036;2023-04-08T02:39:06;144343.41;;;4.57;100.00
28354;BME280;15603;50.878;8.036;2023-04-08T02:41:33;144365.19;;;4.66;100.00
28354;BME280;15603;50.878;8.036;2023-04-08T02:44:01;144322.81;;;4.48;100.00
28354;BME280;15603;50.878;8.036;2023-04-08T02:46:29;144325.25;;;4.49;100.00
28354;BME280;15603;50.878;8.036;2023-04-08T02:48:56;144370.03;;;4.68;100.00
28354;BME280;15603;50.878;8.036;2023-04-08T02:51:23;144363.94;;;4.65;100.00
28354;BME280;15603;50.878;8.036;2023-04-08T02:53:50;144309.50;;;4.42;100.00
28354;BME280;15603;50.878;8.036;2023-04-08T02:56:18;144302.25;;;4.39;100.00
28354;BME280;15603;50.878;8.036;2023-04-08T02:58:45;144357.91;;;4.63;100.00
28354;BME280;15603;50.878;8.036;2023-04-08T03:01:12;144285.31;;;4.32;100.00
28354;BME280;15603;50.878;8.036;2023-04-08T03:03:39;144298.63;;;4.38;100.00
28354;BME280;15603;50.878;8.036;2023-04-08T03:06:07;144215.16;;;4.02;100.00
28354;BME280;15603;50.878;8.036;2023-04-08T03:08:34;144261.13;;;4.22;100.00
28354;BME280;15603;50.878;8.036;2023-04-08T03:11:01;144280.47;;;4.30;100.00
28354;BME280;15603;50.878;8.036;2023-04-08T03:13:28;144253.84;;;4.19;100.00
28354;BME280;15603;50.878;8.036;2023-04-08T03:15:55;144287.75;;;4.33;100.00
28354;BME280;15603;50.878;8.036;2023-04-08T03:18:23;144304.66;;;4.40;100.00
28354;BME280;15603;50.878;8.036;2023-04-08T03:20:50;144241.72;;;4.13;100.00
28354;BME280;15603;50.878;8.036;2023-04-08T03:23:17;144256.28;;;4.20;100.00
28354;BME280;15603;50.878;8.036;2023-04-08T03:25:44;144205.44;;;3.98;100.00
28354;BME280;15603;50.878;8.036;2023-04-08T03:28:12;144198.22;;;3.95;100.00
28354;BME280;15603;50.878;8.036;2023-04-08T03:30:39;144210.28;;;4.00;100.00
28354;BME280;15603;50.878;8.036;2023-04-08T03:33:06;144229.66;;;4.08;100.00
28354;BME280;15603;50.878;8.036;2023-04-08T03:35:34;144190.94;;;3.92;100.00
28354;BME280;15603;50.878;8.036;2023-04-08T03:38:01;144199.41;;;3.96;100.00
28354;BME280;15603;50.878;8.036;2023-04-08T03:40:28;144259.88;;;4.21;100.00
28354;BME280;15603;50.878;8.036;2023-04-08T03:42:55;144256.28;;;4.20;100.00
28354;BME280;15603;50.878;8.036;2023-04-08T03:45:22;144257.50;;;4.20;100.00
28354;BME280;15603;50.878;8.036;2023-04-08T03:47:50;144244.19;;;4.15;100.00
28354;BME280;15603;50.878;8.036;2023-04-08T03:50:17;144188.53;;;3.91;100.00
28354;BME280;15603;50.878;8.036;2023-04-08T03:52:44;144211.53;;;4.01;100.00
28354;BME280;15603;50.878;8.036;2023-04-08T03:55:11;144216.38;;;4.03;100.00
28354;BME280;15603;50.878;8.036;2023-04-08T03:57:38;144183.72;;;3.89;100.00
28354;BME280;15603;50.878;8.036;2023-04-08T04:00:06;144145.00;;;3.72;100.00
28354;BME280;15603;50.878;8.036;2023-04-08T04:02:38;144207.88;;;3.99;100.00
28354;BME280;15603;50.878;8.036;2023-04-08T04:05:05;144171.59;;;3.84;100.00
28354;BME280;15603;50.878;8.036;2023-04-08T04:07:32;144178.88;;;3.87;100.00
28354;BME280;15603;50.878;8.036;2023-04-08T04:09:59;144157.09;;;3.78;100.00
28354;BME280;15603;50.878;8.036;2023-04-08T04:12:28;144164.31;;;3.81;100.00
28354;BME280;15603;50.878;8.036;2023-04-08T04:14:55;144172.81;;;3.84;100.00
28354;BME280;15603;50.878;8.036;2023-04-08T04:17:22;144170.41;;;3.83;100.00
28354;BME280;15603;50.878;8.036;2023-04-08T04:19:49;144101.44;;;3.54;100.00
28354;BME280;15603;50.878;8.036;2023-04-08T04:22:16;144113.53;;;3.59;100.00
28354;BME280;15603;50.878;8.036;2023-04-08T04:24:47;144158.28;;;3.78;100.00
28354;BME280;15603;50.878;8.036;2023-04-08T04:27:15;144170.41;;;3.83;100.00
28354;BME280;15603;50.878;8.036;2023-04-08T04:29:43;144142.59;;;3.71;100.00
28354;BME280;15603;50.878;8.036;2023-04-08T04:32:10;144178.88;;;3.87;100.00
28354;BME280;15603;50.878;8.036;2023-04-08T04:34:37;144174.00;;;3.85;100.00
28354;BME280;15603;50.878;8.036;2023-04-08T04:37:04;144161.94;;;3.80;100.00
28354;BME280;15603;50.878;8.036;2023-04-08T04:39:32;144210.28;;;4.00;100.00
28354;BME280;15603;50.878;8.036;2023-04-08T04:41:59;144152.25;;;3.76;100.00
28354;BME280;15603;50.878;8.036;2023-04-08T04:44:26;144163.13;;;3.80;100.00
28354;BME280;15603;50.878;8.036;2023-04-08T04:46:53;144205.44;;;3.98;100.00
28354;BME280;15603;50.878;8.036;2023-04-08T04:49:21;144178.88;;;3.87;100.00
28354;BME280;15603;50.878;8.036;2023-04-08T04:51:48;144194.56;;;3.93;100.00
28354;BME280;15603;50.878;8.036;2023-04-08T04:54:15;144183.72;;;3.89;100.00
28354;BME280;15603;50.878;8.036;2023-04-08T04:56:42;144201.84;;;3.97;100.00
28354;BME280;15603;50.878;8.036;2023-04-08T04:59:09;144198.22;;;3.95;100.00
28354;BME280;15603;50.878;8.036;2023-04-08T05:01:36;144164.31;;;3.81;100.00
28354;BME280;15603;50.878;8.036;2023-04-08T05:04:03;144227.22;;;4.07;100.00
28354;BME280;15603;50.878;8.036;2023-04-08T05:06:31;144190.94;;;3.92;100.00
28354;BME280;15603;50.878;8.036;2023-04-08T05:08:58;144212.72;;;4.01;100.00
28354;BME280;15603;50.878;8.036;2023-04-08T05:11:25;144188.53;;;3.91;100.00
28354;BME280;15603;50.878;8.036;2023-04-08T05:13:52;144178.88;;;3.87;100.00
28354;BME280;15603;50.878;8.036;2023-04-08T05:16:20;144163.13;;;3.80;100.00
28354;BME280;15603;50.878;8.036;2023-04-08T05:18:47;144200.63;;;3.96;100.00
28354;BME280;15603;50.878;8.036;2023-04-08T05:21:15;144124.44;;;3.64;100.00
28354;BME280;15603;50.878;8.036;2023-04-08T05:23:42;144111.16;;;3.58;100.00
28354;BME280;15603;50.878;8.036;2023-04-08T05:26:09;144157.09;;;3.78;100.00
28354;BME280;15603;50.878;8.036;2023-04-08T05:28:36;144136.50;;;3.69;100.00
28354;BME280;15603;50.878;8.036;2023-04-08T05:31:03;144165.56;;;3.81;100.00
28354;BME280;15603;50.878;8.036;2023-04-08T05:33:30;144074.88;;;3.43;100.00
28354;BME280;15603;50.878;8.036;2023-04-08T05:35:57;144114.75;;;3.60;100.00
28354;BME280;15603;50.878;8.036;2023-04-08T05:38:24;144115.97;;;3.60;100.00
28354;BME280;15603;50.878;8.036;2023-04-08T05:40:52;144192.13;;;3.92;100.00
28354;BME280;15603;50.878;8.036;2023-04-08T05:43:19;144181.28;;;3.88;100.00
28354;BME280;15603;50.878;8.036;2023-04-08T05:45:46;144186.09;;;3.90;100.00
28354;BME280;15603;50.878;8.036;2023-04-08T05:48:13;144153.47;;;3.76;100.00
28354;BME280;15603;50.878;8.036;2023-04-08T05:50:40;144236.91;;;4.11;100.00
28354;BME280;15603;50.878;8.036;2023-04-08T05:53:08;144213.91;;;4.02;100.00
28354;BME280;15603;50.878;8.036;2023-04-08T05:55:35;144290.16;;;4.34;100.00
28354;BME280;15603;50.878;8.036;2023-04-08T05:58:02;144293.78;;;4.36;100.00
28354;BME280;15603;50.878;8.036;2023-04-08T06:00:35;144269.59;;;4.25;100.00
28354;BME280;15603;50.878;8.036;2023-04-08T06:03:02;144292.59;;;4.35;100.00
28354;BME280;15603;50.878;8.036;2023-04-08T06:05:30;144268.34;;;4.25;100.00
28354;BME280;15603;50.878;8.036;2023-04-08T06:07:57;144220.00;;;4.04;100.00
28354;BME280;15603;50.878;8.036;2023-04-08T06:10:24;144241.72;;;4.13;100.00
28354;BME280;15603;50.878;8.036;2023-04-08T06:12:51;144263.53;;;4.23;100.00
28354;BME280;15603;50.878;8.036;2023-04-08T06:15:18;144270.81;;;4.26;100.00
28354;BME280;15603;50.878;8.036;2023-04-08T06:17:45;144307.09;;;4.41;100.00
28354;BME280;15603;50.878;8.036;2023-04-08T06:20:12;144291.34;;;4.35;100.00
28354;BME280;15603;50.878;8.036;2023-04-08T06:22:40;144319.16;;;4.46;100.00
28354;BME280;15603;50.878;8.036;2023-04-08T06:25:07;144340.97;;;4.56;100.00
28354;BME280;15603;50.878;8.036;2023-04-08T06:27:34;144343.41;;;4.57;100.00
28354;BME280;15603;50.878;8.036;2023-04-08T06:30:01;144348.25;;;4.59;100.00
28354;BME280;15603;50.878;8.036;2023-04-08T06:32:28;144340.97;;;4.56;100.00
28354;BME280;15603;50.878;8.036;2023-04-08T06:34:55;144374.88;;;4.70;100.00
28354;BME280;15603;50.878;8.036;2023-04-08T06:37:22;144372.44;;;4.69;100.00
28354;BME280;15603;50.878;8.036;2023-04-08T06:39:50;144413.56;;;4.86;100.00
28354;BME280;15603;50.878;8.036;2023-04-08T06:42:17;144391.78;;;4.77;100.00
28354;BME280;15603;50.878;8.036;2023-04-08T06:45:09;144399.06;;;4.80;100.00
28354;BME280;15603;50.878;8.036;2023-04-08T06:47:36;144397.84;;;4.80;100.00
28354;BME280;15603;50.878;8.036;2023-04-08T06:50:04;144372.44;;;4.69;100.00
28354;BME280;15603;50.878;8.036;2023-04-08T06:52:31;144425.69;;;4.91;100.00
28354;BME280;15603;50.878;8.036;2023-04-08T06:54:58;144482.56;;;5.16;100.00
28354;BME280;15603;50.878;8.036;2023-04-08T06:57:25;144418.41;;;4.88;100.00
28354;BME280;15603;50.878;8.036;2023-04-08T06:59:53;144403.91;;;4.82;100.00
28354;BME280;15603;50.878;8.036;2023-04-08T07:02:20;144420.84;;;4.89;100.00
28354;BME280;15603;50.878;8.036;2023-04-08T07:04:48;144458.38;;;5.05;100.00
28354;BME280;15603;50.878;8.036;2023-04-08T07:07:15;144480.16;;;5.15;100.00
28354;BME280;15603;50.878;8.036;2023-04-08T07:09:42;144445.06;;;5.00;100.00
28354;BME280;15603;50.878;8.036;2023-04-08T07:12:11;144441.41;;;4.98;100.00
28354;BME280;15603;50.878;8.036;2023-04-08T07:14:38;144448.69;;;5.01;100.00
28354;BME280;15603;50.878;8.036;2023-04-08T07:17:06;144478.97;;;5.14;100.00
28354;BME280;15603;50.878;8.036;2023-04-08T07:19:33;144500.72;;;5.23;100.00
28354;BME280;15603;50.878;8.036;2023-04-08T07:22:00;144541.88;;;5.41;100.00
28354;BME280;15603;50.878;8.036;2023-04-08T07:24:28;144508.00;;;5.26;100.00
28354;BME280;15603;50.878;8.036;2023-04-08T07:26:55;144575.81;;;5.55;100.00
28354;BME280;15603;50.878;8.036;2023-04-08T07:29:22;144609.72;;;5.69;100.00
28354;BME280;15603;50.878;8.036;2023-04-08T07:31:49;144538.28;;;5.39;100.00
28354;BME280;15603;50.878;8.036;2023-04-08T07:34:17;144549.19;;;5.44;100.00
28354;BME280;15603;50.878;8.036;2023-04-08T07:36:44;144568.53;;;5.52;100.00
28354;BME280;15603;50.878;8.036;2023-04-08T07:39:11;144488.66;;;5.18;100.00
28354;BME280;15603;50.878;8.036;2023-04-08T07:41:38;144531.00;;;5.36;100.00
28354;BME280;15603;50.878;8.036;2023-04-08T07:44:05;144566.13;;;5.51;100.00
28354;BME280;15603;50.878;8.036;2023-04-08T07:46:36;144597.63;;;5.64;100.00
28354;BME280;15603;50.878;8.036;2023-04-08T07:49:04;144570.97;;;5.53;100.00
28354;BME280;15603;50.878;8.036;2023-04-08T07:51:31;144591.53;;;5.62;100.00
28354;BME280;15603;50.878;8.036;2023-04-08T07:53:59;144613.34;;;5.71;100.00
28354;BME280;15603;50.878;8.036;2023-04-08T07:56:26;144658.19;;;5.90;100.00
28354;BME280;15603;50.878;8.036;2023-04-08T07:58:53;144667.88;;;5.94;100.00
28354;BME280;15603;50.878;8.036;2023-04-08T08:01:22;144687.28;;;6.02;100.00
28354;BME280;15603;50.878;8.036;2023-04-08T08:03:50;144694.56;;;6.05;100.00
28354;BME280;15603;50.878;8.036;2023-04-08T08:06:19;144707.91;;;6.11;100.00
28354;BME280;15603;50.878;8.036;2023-04-08T08:08:46;144604.88;;;5.67;100.00
28354;BME280;15603;50.878;8.036;2023-04-08T08:11:13;144724.88;;;6.18;100.00
28354;BME280;15603;50.878;8.036;2023-04-08T08:13:41;144675.19;;;5.97;100.00
28354;BME280;15603;50.878;8.036;2023-04-08T08:16:08;144730.91;;;6.21;100.00
28354;BME280;15603;50.878;8.036;2023-04-08T08:18:38;144755.13;;;6.31;100.00
28354;BME280;15603;50.878;8.036;2023-04-08T08:21:06;144798.78;;;6.49;100.00
28354;BME280;15603;50.878;8.036;2023-04-08T08:23:33;144752.72;;;6.30;100.00
28354;BME280;15603;50.878;8.036;2023-04-08T08:26:02;144826.66;;;6.61;100.00
28354;BME280;15603;50.878;8.036;2023-04-08T08:28:29;144806.06;;;6.53;100.00
28354;BME280;15603;50.878;8.036;2023-04-08T08:30:57;144889.69;;;6.88;100.00
28354;BME280;15603;50.878;8.036;2023-04-08T08:33:25;144876.34;;;6.82;100.00
28354;BME280;15603;50.878;8.036;2023-04-08T08:35:52;144912.72;;;6.98;100.00
28354;BME280;15603;50.878;8.036;2023-04-08T08:38:19;144927.25;;;7.04;100.00
28354;BME280;15603;50.878;8.036;2023-04-08T08:40:53;144947.88;;;7.13;100.00
28354;BME280;15603;50.878;8.036;2023-04-08T08:43:21;144903.00;;;6.94;100.00
28354;BME280;15603;50.878;8.036;2023-04-08T08:45:48;144865.44;;;6.78;100.00
28354;BME280;15603;50.878;8.036;2023-04-08T08:48:15;144910.31;;;6.97;100.00
28354;BME280;15603;50.878;8.036;2023-04-08T08:50:43;144896.97;;;6.91;100.00
28354;BME280;15603;50.878;8.036;2023-04-08T08:53:10;144949.09;;;7.13;100.00
28354;BME280;15603;50.878;8.036;2023-04-08T08:55:37;144959.97;;;7.18;100.00
28354;BME280;15603;50.878;8.036;2023-04-08T08:58:26;144997.59;;;7.34;100.00
28354;BME280;15603;50.878;8.036;2023-04-08T09:00:54;145019.44;;;7.43;100.00
28354;BME280;15603;50.878;8.036;2023-04-08T09:03:25;144961.22;;;7.18;100.00
28354;BME280;15603;50.878;8.036;2023-04-08T09:05:58;144970.91;;;7.22;100.00
28354;BME280;15603;50.878;8.036;2023-04-08T09:08:35;145021.84;;;7.44;100.00
28354;BME280;15603;50.878;8.036;2023-04-08T09:11:13;145007.28;;;7.38;100.00
28354;BME280;15603;50.878;8.036;2023-04-08T09:13:41;145036.38;;;7.50;100.00
28354;BME280;15603;50.878;8.036;2023-04-08T09:16:10;145082.47;;;7.70;100.00
28354;BME280;15603;50.878;8.036;2023-04-08T09:18:38;144979.41;;;7.26;100.00
28354;BME280;15603;50.878;8.036;2023-04-08T09:21:06;144964.88;;;7.20;100.00
28354;BME280;15603;50.878;8.036;2023-04-08T09:23:43;145053.38;;;7.57;100.00
28354;BME280;15603;50.878;8.036;2023-04-08T09:26:14;145043.69;;;7.53;100.00
28354;BME280;15603;50.878;8.036;2023-04-08T09:28:43;145043.69;;;7.53;100.00
28354;BME280;15603;50.878;8.036;2023-04-08T09:31:24;144944.22;;;7.11;100.00
28354;BME280;15603;50.878;8.036;2023-04-08T09:33:57;145052.16;;;7.57;100.00
28354;BME280;15603;50.878;8.036;2023-04-08T09:36:25;145070.38;;;7.64;100.00
28354;BME280;15603;50.878;8.036;2023-04-08T09:38:55;145004.84;;;7.37;100.00
28354;BME280;15603;50.878;8.036;2023-04-08T09:41:23;145009.69;;;7.39;100.00
28354;BME280;15603;50.878;8.036;2023-04-08T09:43:56;145090.97;;;7.73;100.00
28354;BME280;15603;50.878;8.036;2023-04-08T09:46:26;145112.81;;;7.82;100.00
28354;BME280;15603;50.878;8.036;2023-04-08T09:49:01;145126.16;;;7.88;100.00
28354;BME280;15603;50.878;8.036;2023-04-08T09:51:32;145117.66;;;7.84;100.00
28354;BME280;15603;50.878;8.036;2023-04-08T09:54:05;145169.84;;;8.06;100.00
28354;BME280;15603;50.878;8.036;2023-04-08T09:56:47;145149.19;;;7.98;100.00
28354;BME280;15603;50.878;8.036;2023-04-08T09:59:17;145145.56;;;7.96;100.00
28354;BME280;15603;50.878;8.036;2023-04-08T10:01:52;145128.59;;;7.89;100.00
28354;BME280;15603;50.878;8.036;2023-04-08T10:04:22;145181.94;;;8.12;100.00
28354;BME280;15603;50.878;8.036;2023-04-08T10:06:56;145150.41;;;7.98;100.00
28354;BME280;15603;50.878;8.036;2023-04-08T10:09:26;145218.34;;;8.27;100.00
28354;BME280;15603;50.878;8.036;2023-04-08T10:11:55;145223.19;;;8.29;100.00
28354;BME280;15603;50.878;8.036;2023-04-08T10:14:22;145274.25;;;8.51;100.00
28354;BME280;15603;50.878;8.036;2023-04-08T10:16:49;145203.78;;;8.21;100.00
28354;BME280;15603;50.878;8.036;2023-04-08T10:19:36;145266.94;;;8.48;100.00
28354;BME280;15603;50.878;8.036;2023-04-08T10:27:42;145418.69;;;9.12;100.00
28354;BME280;15603;50.878;8.036;2023-04-08T10:32:56;145330.06;;;8.74;100.00
28354;BME280;15603;50.878;8.036;2023-04-08T10:35:36;145412.63;;;9.09;100.00
28354;BME280;15603;50.878;8.036;2023-04-08T10:38:03;145441.75;;;9.21;100.00
28354;BME280;15603;50.878;8.036;2023-04-08T10:40:35;145422.31;;;9.13;100.00
28354;BME280;15603;50.878;8.036;2023-04-08T10:43:04;145408.97;;;9.08;100.00
28354;BME280;15603;50.878;8.036;2023-04-08T10:45:32;145317.91;;;8.69;100.00
28354;BME280;15603;50.878;8.036;2023-04-08T10:50:40;145418.69;;;9.12;100.00
28354;BME280;15603;50.878;8.036;2023-04-08T10:53:07;145402.91;;;9.05;100.00
28354;BME280;15603;50.878;8.036;2023-04-08T10:55:35;145461.22;;;9.30;100.00
28354;BME280;15603;50.878;8.036;2023-04-08T10:58:06;145502.50;;;9.47;100.00
28354;BME280;15603;50.878;8.036;2023-04-08T11:00:38;145494.00;;;9.43;100.00
28354;BME280;15603;50.878;8.036;2023-04-08T11:03:07;145496.41;;;9.44;100.00
28354;BME280;15603;50.878;8.036;2023-04-08T11:05:36;145551.06;;;9.68;100.00
28354;BME280;15603;50.878;8.036;2023-04-08T11:08:04;145531.63;;;9.59;100.00
28354;BME280;15603;50.878;8.036;2023-04-08T11:10:37;145642.16;;;10.06;100.00
28354;BME280;15603;50.878;8.036;2023-04-08T11:13:07;145667.69;;;10.17;100.00
28354;BME280;15603;50.878;8.036;2023-04-08T11:15:37;145665.25;;;10.16;100.00
28354;BME280;15603;50.878;8.036;2023-04-08T11:18:04;145716.38;;;10.37;100.00
28354;BME280;15603;50.878;8.036;2023-04-08T11:20:32;145756.44;;;10.54;100.00
28354;BME280;15603;50.878;8.036;2023-04-08T11:23:02;145752.81;;;10.53;100.00
28354;BME280;15603;50.878;8.036;2023-04-08T11:25:30;145772.25;;;10.61;100.00
28354;BME280;15603;50.878;8.036;2023-04-08T11:27:57;145710.25;;;10.35;96.09
28354;BME280;15603;50.878;8.036;2023-04-08T11:30:26;145732.16;;;10.44;95.08
28354;BME280;15603;50.878;8.036;2023-04-08T11:32:57;145778.31;;;10.64;94.14
28354;BME280;15603;50.878;8.036;2023-04-08T11:35:28;145655.53;;;10.12;98.02
28354;BME280;15603;50.878;8.036;2023-04-08T11:37:57;145755.22;;;10.54;97.76
28354;BME280;15603;50.878;8.036;2023-04-08T11:40:24;145726.09;;;10.41;97.39
28354;BME280;15603;50.878;8.036;2023-04-08T11:42:52;145735.78;;;10.46;95.00
28354;BME280;15603;50.878;8.036;2023-04-08T11:45:20;145772.25;;;10.61;96.82
28354;BME280;15603;50.878;8.036;2023-04-08T11:47:47;145784.38;;;10.66;91.67
28354;BME280;15603;50.878;8.036;2023-04-08T11:50:25;145772.25;;;10.61;89.39
28354;BME280;15603;50.878;8.036;2023-04-08T11:52:52;145773.47;;;10.61;85.99
28354;BME280;15603;50.878;8.036;2023-04-08T11:55:26;145873.16;;;11.04;82.28
28354;BME280;15603;50.878;8.036;2023-04-08T11:57:55;145895.03;;;11.13;82.07
28354;BME280;15603;50.878;8.036;2023-04-08T12:00:23;145823.31;;;10.83;78.79
28354;BME280;15603;50.878;8.036;2023-04-08T12:02:50;145943.66;;;11.33;79.81
28354;BME280;15603;50.878;8.036;2023-04-08T12:05:18;145871.94;;;11.03;78.06
28354;BME280;15603;50.878;8.036;2023-04-08T12:07:45;145943.66;;;11.33;80.79
28354;BME280;15603;50.878;8.036;2023-04-08T12:10:12;146043.41;;;11.75;81.46
28354;BME280;15603;50.878;8.036;2023-04-08T12:12:39;146133.47;;;12.13;80.20
28354;BME280;15603;50.878;8.036;2023-04-08T12:15:08;146048.25;;;11.77;74.95
28354;BME280;15603;50.878;8.036;2023-04-08T12:17:35;145993.53;;;11.54;78.21
28354;BME280;15603;50.878;8.036;2023-04-08T12:20:05;145985.00;;;11.51;78.88
28354;BME280;15603;50.878;8.036;2023-04-08T12:22:32;145923.00;;;11.25;78.21
28354;BME280;15603;50.878;8.036;2023-04-08T12:25:00;145903.56;;;11.16;80.92
28354;BME280;15603;50.878;8.036;2023-04-08T12:27:30;145935.19;;;11.30;83.30
28354;BME280;15603;50.878;8.036;2023-04-08T12:29:59;145959.50;;;11.40;79.10
28354;BME280;15603;50.878;8.036;2023-04-08T12:32:27;145977.72;;;11.48;82.38
28354;BME280;15603;50.878;8.036;2023-04-08T12:34:54;146066.50;;;11.85;84.05
28354;BME280;15603;50.878;8.036;2023-04-08T12:37:21;146134.69;;;12.14;81.59
28354;BME280;15603;50.878;8.036;2023-04-08T12:39:48;146236.94;;;12.57;79.71
28354;BME280;15603;50.878;8.036;2023-04-08T12:42:15;146347.69;;;13.04;81.54
28354;BME280;15603;50.878;8.036;2023-04-08T12:44:43;146453.66;;;13.48;78.07
28354;BME280;15603;50.878;8.036;2023-04-08T12:47:10;146434.19;;;13.40;76.11
28354;BME280;15603;50.878;8.036;2023-04-08T12:49:37;146487.81;;;13.63;69.11
28354;BME280;15603;50.878;8.036;2023-04-08T12:52:07;146510.94;;;13.72;69.78
28354;BME280;15603;50.878;8.036;2023-04-08T12:54:34;146495.09;;;13.66;71.94
28354;BME280;15603;50.878;8.036;2023-04-08T12:57:01;146485.34;;;13.62;75.73
28354;BME280;15603;50.878;8.036;2023-04-08T12:59:28;146484.13;;;13.61;69.32
28354;BME280;15603;50.878;8.036;2023-04-08T13:01:55;146390.31;;;13.22;70.69
28354;BME280;15603;50.878;8.036;2023-04-08T13:04:22;146339.16;;;13.00;73.96
28354;BME280;15603;50.878;8.036;2023-04-08T13:06:50;146329.44;;;12.96;74.85
28354;BME280;15603;50.878;8.036;2023-04-08T13:09:17;146239.34;;;12.58;77.32
28354;BME280;15603;50.878;8.036;2023-04-08T13:11:44;146344.03;;;13.02;76.19